createdAt,value
2022-11-05T00:00:35.728Z,11.54
2022-11-05T00:03:20.887Z,11.13
2022-11-05T00:06:27.994Z,11.33
2022-11-05T00:12:58.672Z,11.13
2022-11-05T00:15:43.701Z,10.80
2022-11-05T00:18:10.262Z,10.72
2022-11-05T00:20:36.959Z,10.23
2022-11-05T00:23:23.831Z,10.37
2022-11-05T00:28:27.291Z,10.61
2022-11-05T00:30:54.944Z,10.69
2022-11-05T00:33:21.886Z,10.52
2022-11-05T00:45:00.731Z,10.67
2022-11-05T00:47:46.171Z,10.64
2022-11-05T00:50:13.174Z,10.42
2022-11-05T00:52:59.688Z,10.59
2022-11-05T00:55:41.268Z,10.56
2022-11-05T00:58:11.536Z,10.81
2022-11-05T01:00:40.289Z,10.62
2022-11-05T01:03:10.692Z,10.86
2022-11-05T01:05:44.232Z,11.02
2022-11-05T01:08:12.248Z,11.05
2022-11-05T01:10:43.147Z,11.24
2022-11-05T01:13:12.933Z,11.06
2022-11-05T01:15:41.045Z,10.82
2022-11-05T01:18:07.780Z,11.32
2022-11-05T01:20:34.449Z,11.62
2022-11-05T01:23:01.036Z,11.43
2022-11-05T01:25:49.679Z,11.72
2022-11-05T01:28:16.347Z,11.31
2022-11-05T01:30:42.948Z,11.42
2022-11-05T01:33:09.929Z,11.48
2022-11-05T01:35:36.944Z,11.67
2022-11-05T01:38:03.680Z,11.24
2022-11-05T02:02:39.081Z,10.11
2022-11-05T02:08:22.538Z,10.05
2022-11-05T02:13:24.630Z,10.15
2022-11-05T02:22:09.744Z,10.00
2022-11-05T02:24:44.835Z,9.57
2022-11-05T02:27:29.751Z,9.73
2022-11-05T02:45:46.411Z,9.59
2022-11-05T02:48:26.040Z,9.82
2022-11-05T02:51:35.957Z,9.61
2022-11-05T02:54:16.342Z,9.67
2022-11-05T02:56:47.590Z,9.78
2022-11-05T02:59:14.246Z,9.58
2022-11-05T03:05:35.584Z,9.41
2022-11-05T03:08:13.158Z,9.33
2022-11-05T03:10:50.510Z,9.21
2022-11-05T03:13:36.342Z,9.20
2022-11-05T03:21:48.861Z,9.37
2022-11-05T03:24:30.329Z,9.43
2022-11-05T03:27:02.459Z,9.53
2022-11-05T03:29:35.387Z,9.72
2022-11-05T03:32:05.408Z,10.02
2022-11-05T03:35:02.847Z,9.73
2022-11-05T03:38:38.551Z,9.86
2022-11-05T03:41:08.663Z,10.20
2022-11-05T03:43:40.401Z,10.29
2022-11-05T03:46:16.689Z,9.95
2022-11-05T03:48:47.536Z,9.88
2022-11-05T03:52:07.734Z,9.87
2022-11-05T03:54:35.081Z,9.89
2022-11-05T03:57:09.303Z,9.72
2022-11-05T03:59:45.173Z,9.57
2022-11-05T04:02:13.790Z,9.86
2022-11-05T04:04:41.276Z,9.60
2022-11-05T04:07:52.276Z,9.52
2022-11-05T04:10:39.436Z,9.28
2022-11-05T04:13:24.953Z,9.45
2022-11-05T04:16:14.753Z,9.69
2022-11-05T04:18:41.684Z,9.93
2022-11-05T04:21:28.654Z,9.74
2022-11-05T04:24:09.252Z,10.03
2022-11-05T04:26:40.770Z,9.82
2022-11-05T04:29:26.393Z,9.88
2022-11-05T04:31:53.255Z,9.85
2022-11-05T04:34:22.048Z,9.83
2022-11-05T04:36:50.371Z,9.85
2022-11-05T04:50:46.856Z,9.86
2022-11-05T04:54:04.948Z,9.93
2022-11-05T05:17:37.825Z,9.95
2022-11-05T05:22:59.917Z,10.13
2022-11-05T05:25:26.797Z,10.00
2022-11-05T05:27:57.528Z,10.08
2022-11-05T05:30:57.623Z,10.14
2022-11-05T05:33:25.272Z,10.21
2022-11-05T05:35:51.839Z,10.11
2022-11-05T06:16:21.692Z,9.67
2022-11-05T06:18:48.263Z,9.70
2022-11-05T06:21:20.274Z,9.71
2022-11-05T06:23:50.776Z,9.78
2022-11-05T06:26:18.642Z,9.78
2022-11-05T06:28:46.033Z,9.28
2022-11-05T06:47:59.334Z,8.89
2022-11-05T06:50:27.896Z,8.79
2022-11-05T06:52:59.407Z,8.72
2022-11-05T06:55:28.321Z,8.82
2022-11-05T06:57:57.060Z,9.01
2022-11-05T07:03:15.820Z,8.79
2022-11-05T07:05:51.457Z,8.69
2022-11-05T07:13:28.664Z,9.05
2022-11-05T07:16:06.491Z,9.38
2022-11-05T07:39:11.950Z,9.09
2022-11-05T07:41:38.652Z,9.24
2022-11-05T07:49:44.032Z,9.35
2022-11-05T08:16:52.954Z,9.48
2022-11-05T08:33:16.156Z,10.04
2022-11-05T08:35:45.876Z,10.37
2022-11-05T08:38:19.963Z,10.26
2022-11-05T08:40:55.090Z,10.13
2022-11-05T08:43:33.078Z,10.59
2022-11-05T08:46:02.718Z,10.56
2022-11-05T08:54:06.993Z,10.52
2022-11-05T09:02:25.123Z,10.93
2022-11-05T09:04:52.651Z,10.68
2022-11-05T09:07:19.258Z,10.39
2022-11-05T09:09:45.792Z,10.45
2022-11-05T09:12:16.240Z,10.58
2022-11-05T09:14:48.454Z,10.55
2022-11-05T09:17:28.846Z,10.39
2022-11-05T09:28:31.602Z,10.91
2022-11-05T09:30:58.187Z,10.35
2022-11-05T09:33:26.306Z,10.64
2022-11-05T09:35:53.880Z,10.77
2022-11-05T09:38:20.501Z,10.43
2022-11-05T09:41:26.626Z,10.42
2022-11-05T09:44:01.759Z,10.67
2022-11-05T09:46:41.315Z,10.93
2022-11-05T09:49:20.592Z,11.02
2022-11-05T09:51:47.187Z,10.74
2022-11-05T09:54:15.713Z,10.71
2022-11-05T09:59:58.448Z,10.99
2022-11-05T10:02:39.886Z,11.01
2022-11-05T10:05:15.280Z,11.30
2022-11-05T10:07:53.007Z,11.52
2022-11-05T10:10:44.508Z,11.57
2022-11-05T10:13:35.284Z,11.16
2022-11-05T10:18:58.568Z,11.55
2022-11-05T10:21:51.588Z,12.04
2022-11-05T10:24:19.462Z,12.09
2022-11-05T10:26:52.453Z,12.19
2022-11-05T10:31:57.125Z,12.49
2022-11-05T10:34:28.774Z,11.86
2022-11-05T10:39:36.956Z,12.01
2022-11-05T10:42:59.769Z,11.97
2022-11-05T10:46:16.730Z,12.30
2022-11-05T10:48:52.737Z,12.60
2022-11-05T10:51:19.783Z,12.83
2022-11-05T10:56:36.814Z,12.61
2022-11-05T10:59:10.952Z,12.05
2022-11-05T11:31:58.797Z,12.28
2022-11-05T11:34:39.448Z,12.19
2022-11-05T11:37:22.765Z,11.87
2022-11-05T11:40:03.461Z,12.01
2022-11-05T11:45:25.787Z,12.10
2022-11-05T11:47:52.608Z,12.16
2022-11-05T12:04:06.418Z,12.37
2022-11-05T12:06:38.104Z,12.51
2022-11-05T12:09:42.165Z,12.52
2022-11-05T12:12:52.130Z,12.38
2022-11-05T12:15:35.571Z,12.24
2022-11-05T12:18:05.571Z,12.85
2022-11-05T12:20:48.446Z,13.05
2022-11-05T12:27:33.920Z,13.17
2022-11-05T12:30:03.453Z,13.21
2022-11-05T12:33:24.639Z,12.92
2022-11-05T12:36:03.263Z,12.90
2022-11-05T12:38:38.658Z,13.26
2022-11-05T12:46:58.794Z,13.49
2022-11-05T12:49:46.422Z,13.31
2022-11-05T12:57:41.476Z,13.41
2022-11-05T13:00:14.833Z,13.18
2022-11-05T13:02:49.702Z,13.42
2022-11-05T13:05:28.328Z,13.12
2022-11-05T13:08:07.657Z,13.28
2022-11-05T13:10:44.834Z,13.67
2022-11-05T13:13:18.448Z,13.67
2022-11-05T13:15:53.051Z,13.77
2022-11-05T13:18:30.523Z,13.43
2022-11-05T13:21:17.327Z,13.26
2022-11-05T13:23:53.913Z,13.51
2022-11-05T13:30:49.533Z,13.34
2022-11-05T13:33:27.454Z,13.49
2022-11-05T13:36:23.507Z,13.41
2022-11-05T13:39:00.085Z,12.83
2022-11-05T13:42:03.934Z,12.85
2022-11-05T13:44:48.608Z,12.72
2022-11-05T13:48:08.445Z,12.83
2022-11-05T13:51:04.817Z,12.94
2022-11-05T14:04:36.431Z,12.40
2022-11-05T14:07:15.722Z,12.79
2022-11-05T14:09:44.034Z,12.44
2022-11-05T14:12:39.699Z,12.29
2022-11-05T14:18:18.290Z,12.35
2022-11-05T14:21:07.409Z,12.23
2022-11-05T14:23:40.122Z,12.49
2022-11-05T14:34:24.053Z,12.62
2022-11-05T14:37:12.673Z,12.48
2022-11-05T14:39:40.419Z,12.59
2022-11-05T14:42:11.870Z,12.72
2022-11-05T14:47:30.833Z,12.45
2022-11-05T14:50:20.113Z,12.63
2022-11-05T14:52:55.542Z,12.58
2022-11-05T14:55:37.751Z,12.41
2022-11-05T14:58:19.214Z,12.75
2022-11-05T15:01:40.073Z,12.54
2022-11-05T15:04:46.182Z,12.37
2022-11-05T15:07:35.258Z,12.29
2022-11-05T15:10:26.678Z,12.16
2022-11-05T15:13:02.430Z,12.48
2022-11-05T15:15:39.062Z,12.35
2022-11-05T15:18:29.436Z,12.30
2022-11-05T15:29:35.701Z,11.98
2022-11-05T15:32:02.518Z,12.12
2022-11-05T15:34:52.482Z,11.76
2022-11-05T15:37:27.013Z,12.02
2022-11-05T15:39:55.258Z,11.94
2022-11-05T15:42:26.632Z,11.98
2022-11-05T15:44:55.766Z,11.99
2022-11-05T15:47:59.523Z,12.02
2022-11-05T15:50:45.026Z,12.06
2022-11-05T15:54:15.584Z,12.18
2022-11-05T15:56:39.935Z,12.20
2022-11-05T15:59:21.879Z,11.97
2022-11-05T16:01:53.504Z,12.14
2022-11-05T16:04:23.356Z,12.30
2022-11-05T16:06:53.062Z,12.30
2022-11-05T16:09:31.517Z,12.15
2022-11-05T16:12:20.572Z,12.15
2022-11-05T16:15:08.814Z,12.15
2022-11-05T16:17:55.305Z,12.15
2022-11-05T16:20:23.880Z,12.10
2022-11-05T16:23:04.751Z,11.72
2022-11-05T16:25:43.112Z,11.96
2022-11-05T16:28:20.838Z,12.21
2022-11-05T16:31:02.473Z,12.48
2022-11-05T16:33:43.504Z,12.73
2022-11-05T16:36:10.348Z,12.64
2022-11-05T16:38:36.999Z,12.41
2022-11-05T16:41:06.833Z,12.34
2022-11-05T16:43:36.715Z,12.65
2022-11-05T16:46:03.289Z,12.73
2022-11-05T16:48:29.982Z,12.66
2022-11-05T16:50:56.742Z,12.52
2022-11-05T16:53:26.495Z,12.53
2022-11-05T16:55:54.858Z,12.35
2022-11-05T16:58:23.971Z,12.49
2022-11-05T17:00:52.629Z,12.34
2022-11-05T17:03:19.234Z,12.07
2022-11-05T17:05:46.117Z,12.25
2022-11-05T17:08:13.048Z,12.34
2022-11-05T17:10:50.567Z,12.12
2022-11-05T17:13:19.233Z,12.32
2022-11-05T17:15:50.923Z,12.21
2022-11-05T17:18:19.124Z,12.00
2022-11-05T17:20:51.711Z,11.83
2022-11-05T17:23:20.958Z,11.78
2022-11-05T17:25:51.328Z,11.85
2022-11-05T17:28:19.268Z,11.62
2022-11-05T17:30:52.127Z,11.80
2022-11-05T17:33:20.004Z,11.66
2022-11-05T17:35:46.633Z,11.81
2022-11-05T17:38:13.534Z,11.75
2022-11-05T17:40:40.490Z,11.78
2022-11-05T17:43:07.576Z,11.59
2022-11-05T17:45:34.793Z,11.81
2022-11-05T17:48:03.295Z,11.69
2022-11-05T17:50:30.190Z,11.74
2022-11-05T17:52:56.801Z,11.60
2022-11-05T17:55:23.484Z,11.63
2022-11-05T17:57:52.716Z,11.15
2022-11-05T18:00:22.568Z,11.42
2022-11-05T18:02:50.479Z,11.41
2022-11-05T18:05:18.434Z,11.46
2022-11-05T18:07:45.920Z,11.62
2022-11-05T18:10:13.597Z,11.16
2022-11-05T18:12:40.824Z,11.33
2022-11-05T18:15:08.183Z,11.47
2022-11-05T18:17:34.772Z,11.76
2022-11-05T18:20:01.366Z,11.26
2022-11-05T18:22:28.147Z,11.58
2022-11-05T18:24:54.926Z,11.57
2022-11-05T18:27:24.534Z,11.66
2022-11-05T18:29:51.270Z,11.48
2022-11-05T18:32:17.932Z,11.06
2022-11-05T18:34:44.516Z,11.42
2022-11-05T18:37:11.444Z,11.17
2022-11-05T18:39:38.206Z,10.92
2022-11-05T18:42:05.061Z,11.12
2022-11-05T18:44:36.269Z,11.19
2022-11-05T18:47:06.894Z,10.99
2022-11-05T18:49:53.035Z,10.89
2022-11-05T18:57:54.321Z,11.10
2022-11-05T19:00:20.973Z,10.91
2022-11-05T19:02:48.856Z,11.01
2022-11-05T19:05:36.945Z,10.96
2022-11-05T19:08:03.664Z,11.25
2022-11-05T19:10:51.454Z,11.20
2022-11-05T19:36:18.626Z,11.23
2022-11-05T19:39:09.113Z,11.09
2022-11-05T19:41:56.580Z,10.96
2022-11-05T19:44:45.453Z,10.97
2022-11-05T19:47:12.003Z,10.83
2022-11-05T19:55:26.172Z,11.17
2022-11-05T19:57:52.791Z,11.32
2022-11-05T20:28:10.311Z,10.96
2022-11-05T20:30:38.935Z,10.98
2022-11-05T20:33:05.519Z,11.12
2022-11-05T20:36:13.188Z,10.98
2022-11-05T20:39:29.971Z,11.10
2022-11-05T20:47:48.263Z,10.91
2022-11-05T21:30:36.863Z,11.21
2022-11-05T21:33:05.263Z,11.10
2022-11-05T21:35:32.509Z,10.96
2022-11-05T21:37:59.243Z,11.12
2022-11-05T21:40:26.509Z,11.15
2022-11-05T21:42:53.054Z,11.17
2022-11-05T21:45:39.657Z,11.20
2022-11-05T21:48:07.420Z,11.17
2022-11-05T21:50:52.891Z,11.16
2022-11-05T22:00:05.394Z,11.18
2022-11-05T22:02:32.220Z,11.08
2022-11-05T22:20:50.091Z,11.14
2022-11-05T22:23:16.700Z,10.99
2022-11-05T22:25:43.356Z,11.14
2022-11-05T23:25:13.611Z,11.19
2022-11-05T23:27:41.224Z,11.30
2022-11-05T23:30:11.898Z,11.24
2022-11-05T23:32:38.732Z,11.20
2022-11-05T23:35:05.996Z,11.15
2022-11-05T23:40:10.835Z,11.31
2022-11-05T23:42:56.585Z,11.37
2022-11-05T23:45:42.044Z,11.04
2022-11-05T23:48:18.388Z,11.00
2022-11-05T23:50:57.420Z,11.23
2022-11-05T23:53:42.156Z,11.15
2022-11-05T23:59:23.495Z,11.09
